Weather at Clermont County Airport

Public forecast

Using degrees Fahrenheit for public forecast. Weather courtesy of forecast.io.

Current aviation weather report (METAR) for Clermont County Airport

Report is more than 6 hours old.

2022/11/14 15:35 (retrieved 2 years ago)

KI69 141535Z AUTO 08006KT 10SM SCT035 04/M04 A3038 RMK AO2 T00391039

Closest aviation forecast (TAF) to Clermont County Airport

Forecast is more than 12 hours old.

Closest forecast is Cincinnati Municipal Airport Lunken Field, 9.8 nm (18.2 km) W.

2023/02/22 20:15 Ammendment (retrieved 1 year ago)

TAF AMD KLUK 222012Z 2220/2318 22020G34KT P6SM BKN060 FM230300 23017G32KT 6SM SHRA BR OVC050 FM230400 23014G27KT P6SM VCSH BKN025 FM230600 23012G24KT P6SM VCSH SCT025 FM231500 24016G26KT P6SM FEW250